createdAt,value
2019-01-13T00:01:10.680Z,18.33
2019-01-13T00:04:32.549Z,15.60
2019-01-13T00:12:01.385Z,9.83
2019-01-13T00:15:20.504Z,12.23
2019-01-13T00:18:28.998Z,16.40
2019-01-13T00:21:37.769Z,20.03
2019-01-13T00:24:46.337Z,15.53
2019-01-13T00:32:06.997Z,17.40
2019-01-13T00:35:27.996Z,12.93
2019-01-13T00:38:47.951Z,11.27
2019-01-13T00:42:11.865Z,13.63
2019-01-13T00:45:20.017Z,16.67
2019-01-13T00:48:28.461Z,17.23
2019-01-13T00:51:49.378Z,16.63
2019-01-13T00:55:35.975Z,14.67
2019-01-13T00:58:54.953Z,16.53
2019-01-13T01:02:17.602Z,22.37
2019-01-13T01:05:26.177Z,16.50
2019-01-13T01:12:59.355Z,7.87
2019-01-13T01:16:19.297Z,13.97
2019-01-13T01:23:36.942Z,8.00
2019-01-13T01:30:51.252Z,14.57
2019-01-13T01:33:59.729Z,12.20
2019-01-13T01:44:27.598Z,11.43
2019-01-13T01:47:36.204Z,12.23
2019-01-13T01:50:44.700Z,10.50
2019-01-13T01:53:53.305Z,10.70
2019-01-13T01:57:01.977Z,11.90
2019-01-13T02:00:32.403Z,11.13
2019-01-13T02:03:56.236Z,10.17
2019-01-13T02:07:16.098Z,8.97
2019-01-13T02:10:38.698Z,9.23
2019-01-13T02:14:11.065Z,14.97
2019-01-13T02:17:31.456Z,6.07
2019-01-13T02:20:39.958Z,6.20
2019-01-13T02:23:48.413Z,11.40
2019-01-13T02:27:08.288Z,14.53
2019-01-13T02:34:42.110Z,15.50
2019-01-13T02:41:43.032Z,12.97
2019-01-13T02:44:51.538Z,11.33
2019-01-13T02:48:00.005Z,18.30
2019-01-13T02:55:15.113Z,15.57
2019-01-13T02:58:45.462Z,12.67
2019-01-13T03:01:54.053Z,12.63
2019-01-13T03:05:02.717Z,14.30
2019-01-13T03:08:31.844Z,12.47
2019-01-13T03:11:40.333Z,15.07
2019-01-13T03:30:37.207Z,13.27
2019-01-13T03:34:08.489Z,12.47
2019-01-13T03:37:17.020Z,11.83
2019-01-13T03:40:44.581Z,13.90
2019-01-13T03:48:27.954Z,14.83
2019-01-13T03:59:36.265Z,11.90
2019-01-13T04:03:00.923Z,16.70
2019-01-13T04:10:02.216Z,14.07
2019-01-13T04:13:10.695Z,12.33
2019-01-13T04:16:19.298Z,12.40
2019-01-13T04:27:38.478Z,12.30
2019-01-13T04:31:05.125Z,11.03
2019-01-13T04:53:37.763Z,12.63
2019-01-13T04:56:57.759Z,11.67
2019-01-13T05:08:32.961Z,16.77
2019-01-13T05:12:02.160Z,11.73
2019-01-13T05:19:05.565Z,6.10
2019-01-13T05:22:32.959Z,8.10
2019-01-13T05:25:52.902Z,3.50
2019-01-13T05:37:22.881Z,5.10
2019-01-13T06:19:43.493Z,8.57
2019-01-13T06:23:39.824Z,11.97
2019-01-13T06:50:26.499Z,10.63
2019-01-13T07:02:25.198Z,10.77
2019-01-13T07:05:45.991Z,11.60
2019-01-13T07:09:14.074Z,10.23
2019-01-13T07:31:20.948Z,10.27
2019-01-13T07:34:29.541Z,7.63
2019-01-13T07:44:59.880Z,6.83
2019-01-13T07:52:29.990Z,3.10
2019-01-13T07:55:50.805Z,3.43
2019-01-13T07:59:27.864Z,3.20
2019-01-13T08:10:22.966Z,3.97
2019-01-13T08:13:43.206Z,3.20
2019-01-13T08:17:02.229Z,5.23
2019-01-13T08:20:19.485Z,2.13
2019-01-13T08:23:50.607Z,2.17
2019-01-13T08:27:14.374Z,3.20
2019-01-13T08:30:22.943Z,2.30
2019-01-13T08:33:31.382Z,2.13
2019-01-13T08:36:39.963Z,1.90
2019-01-13T08:39:58.752Z,2.87
2019-01-13T08:43:19.297Z,2.17
2019-01-13T08:46:38.304Z,2.70
2019-01-13T08:50:06.718Z,2.27
2019-01-13T09:27:09.948Z,1.50
2019-01-13T10:21:38.946Z,0.40
2019-01-13T10:32:55.115Z,0.50
2019-01-13T12:33:54.931Z,8.07
2019-01-13T13:09:27.487Z,10.77
2019-01-13T13:12:54.499Z,16.07
2019-01-13T13:16:41.597Z,21.90
2019-01-13T13:20:02.467Z,16.80
2019-01-13T13:23:24.856Z,13.87
2019-01-13T13:26:44.679Z,21.00
2019-01-13T13:30:16.581Z,15.47
2019-01-13T13:48:47.322Z,15.83
2019-01-13T14:14:41.869Z,20.83
2019-01-13T15:44:49.575Z,18.17
2019-01-13T16:24:48.053Z,15.63
2019-01-13T17:47:08.859Z,18.97
2019-01-13T17:50:28.922Z,21.17
2019-01-13T18:17:16.928Z,24.35
2019-01-13T19:02:16.704Z,18.07
2019-01-13T19:05:51.887Z,23.37
2019-01-13T19:09:16.075Z,20.80
2019-01-13T19:45:03.134Z,19.77
2019-01-13T19:56:39.203Z,27.37
2019-01-13T19:59:54.649Z,24.47
2019-01-13T20:03:03.531Z,23.07
2019-01-13T20:22:26.968Z,16.87
2019-01-13T20:25:38.224Z,12.63
2019-01-13T20:28:48.745Z,14.70
2019-01-13T20:32:16.113Z,17.13
2019-01-13T20:35:56.188Z,16.83
2019-01-13T20:39:30.774Z,17.03
2019-01-13T20:43:16.968Z,17.90
2019-01-13T20:46:36.692Z,22.20
2019-01-13T20:53:40.238Z,19.80
2019-01-13T21:01:10.974Z,18.97
2019-01-13T21:04:20.587Z,11.27
2019-01-13T21:07:29.275Z,18.73
2019-01-13T21:10:38.454Z,17.17
2019-01-13T21:13:47.320Z,18.10
2019-01-13T21:16:56.060Z,26.70
2019-01-13T21:20:05.816Z,17.77
2019-01-13T21:23:14.993Z,22.83
2019-01-13T21:26:23.532Z,20.73
2019-01-13T21:29:31.971Z,19.53
2019-01-13T21:32:50.843Z,18.40
2019-01-13T21:35:59.304Z,19.53
2019-01-13T21:39:10.014Z,19.10
2019-01-13T21:42:18.467Z,17.60
2019-01-13T21:45:26.917Z,23.27
2019-01-13T21:48:35.384Z,22.93
2019-01-13T21:51:54.332Z,21.60
2019-01-13T21:55:02.787Z,25.27
2019-01-13T21:58:11.261Z,17.37
2019-01-13T22:01:19.696Z,16.00
2019-01-13T22:04:54.252Z,17.93
2019-01-13T22:08:14.023Z,15.77
2019-01-13T22:11:34.043Z,21.20
2019-01-13T22:14:42.496Z,25.47
2019-01-13T22:18:01.302Z,17.13
2019-01-13T22:21:09.754Z,26.50
2019-01-13T22:24:18.241Z,14.83
2019-01-13T22:27:26.667Z,17.03
2019-01-13T22:30:57.637Z,23.37
2019-01-13T22:34:17.471Z,28.50
2019-01-13T22:37:36.274Z,20.67
2019-01-13T22:40:44.724Z,19.57
2019-01-13T22:43:53.199Z,24.40
2019-01-13T22:47:01.735Z,23.37
2019-01-13T23:09:13.960Z,23.47
2019-01-13T23:12:32.848Z,18.73
2019-01-13T23:16:18.907Z,18.97
2019-01-13T23:19:43.085Z,16.07
2019-01-13T23:23:14.951Z,23.53
2019-01-13T23:27:00.237Z,25.60
2019-01-13T23:49:14.254Z,27.50
